createdAt,value
2017-08-06T00:00:44.108Z,78.00
2017-08-06T00:03:10.396Z,77.80
2017-08-06T00:05:36.694Z,77.90
2017-08-06T00:08:02.992Z,77.90
2017-08-06T00:10:29.266Z,77.90
2017-08-06T00:12:56.287Z,78.10
2017-08-06T00:15:22.597Z,78.10
2017-08-06T00:17:48.877Z,78.30
2017-08-06T00:20:15.915Z,78.40
2017-08-06T00:22:42.947Z,78.20
2017-08-06T00:25:09.228Z,78.20
2017-08-06T00:27:35.515Z,78.20
2017-08-06T00:30:01.810Z,78.30
2017-08-06T00:32:28.082Z,78.20
2017-08-06T00:34:55.119Z,78.30
2017-08-06T00:37:21.391Z,78.30
2017-08-06T00:39:47.671Z,78.60
2017-08-06T00:42:13.947Z,78.40
2017-08-06T00:44:40.239Z,78.40
2017-08-06T00:47:06.528Z,78.60
2017-08-06T00:49:32.813Z,78.60
2017-08-06T00:51:59.111Z,78.70
2017-08-06T00:54:25.424Z,78.70
2017-08-06T00:56:51.712Z,78.80
2017-08-06T00:59:17.994Z,79.00
2017-08-06T01:01:44.329Z,79.00
2017-08-06T01:04:10.639Z,79.10
2017-08-06T01:06:36.919Z,79.30
2017-08-06T01:09:03.943Z,79.50
2017-08-06T01:11:30.219Z,79.50
2017-08-06T01:13:56.691Z,79.60
2017-08-06T01:16:23.076Z,79.70
2017-08-06T01:18:49.367Z,79.70
2017-08-06T01:21:15.694Z,79.90
2017-08-06T01:23:41.974Z,80.00
2017-08-06T01:26:08.256Z,80.30
2017-08-06T01:28:34.566Z,80.60
2017-08-06T01:31:00.861Z,80.60
2017-08-06T01:33:27.162Z,80.70
2017-08-06T01:35:54.214Z,80.70
2017-08-06T01:38:21.240Z,80.90
2017-08-06T01:40:47.542Z,80.80
2017-08-06T01:43:14.014Z,81.00
2017-08-06T01:45:41.018Z,81.40
2017-08-06T01:48:07.322Z,81.10
2017-08-06T01:50:33.654Z,81.00
2017-08-06T01:52:59.955Z,81.70
2017-08-06T01:55:27.000Z,81.50
2017-08-06T01:57:54.131Z,81.60
2017-08-06T02:00:20.432Z,81.50
2017-08-06T02:02:46.698Z,81.80
2017-08-06T02:05:12.989Z,81.80
2017-08-06T02:07:39.267Z,81.90
2017-08-06T02:10:06.283Z,82.00
2017-08-06T02:12:33.333Z,82.00
2017-08-06T02:14:59.611Z,81.60
2017-08-06T02:17:25.902Z,81.90
2017-08-06T02:19:52.215Z,81.80
2017-08-06T02:22:18.480Z,81.60
2017-08-06T02:24:45.486Z,82.20
2017-08-06T02:27:11.774Z,82.20
2017-08-06T02:29:38.067Z,82.30
2017-08-06T02:32:04.335Z,82.40
2017-08-06T02:34:31.167Z,82.50
2017-08-06T02:36:57.455Z,82.40
2017-08-06T02:39:23.736Z,82.40
2017-08-06T02:41:50.051Z,82.80
2017-08-06T02:44:16.849Z,82.80
2017-08-06T02:46:43.128Z,82.90
2017-08-06T02:49:09.817Z,83.00
2017-08-06T02:51:36.534Z,83.20
2017-08-06T02:54:02.815Z,82.90
2017-08-06T02:56:29.843Z,83.00
2017-08-06T02:58:56.181Z,82.90
2017-08-06T03:01:22.451Z,82.70
2017-08-06T03:03:48.726Z,82.70
2017-08-06T03:06:15.015Z,82.80
2017-08-06T03:08:41.294Z,82.70
2017-08-06T03:11:07.558Z,82.80
2017-08-06T03:13:34.037Z,82.90
2017-08-06T03:16:00.304Z,83.30
2017-08-06T03:18:27.313Z,84.00
2017-08-06T03:20:53.594Z,83.90
2017-08-06T03:23:19.884Z,84.20
2017-08-06T03:25:46.194Z,84.50
2017-08-06T03:28:12.491Z,84.90
2017-08-06T03:30:38.771Z,84.80
2017-08-06T03:33:05.048Z,84.70
2017-08-06T03:35:31.366Z,84.90
2017-08-06T03:37:58.053Z,84.90
2017-08-06T03:40:24.632Z,84.90
2017-08-06T03:42:51.683Z,85.70
2017-08-06T03:45:18.722Z,85.70
2017-08-06T03:47:44.989Z,85.60
2017-08-06T03:50:11.282Z,85.90
2017-08-06T03:52:38.303Z,86.60
2017-08-06T03:55:04.578Z,85.90
2017-08-06T03:57:31.146Z,85.90
2017-08-06T03:59:57.429Z,86.00
2017-08-06T04:02:24.454Z,86.20
2017-08-06T04:04:50.929Z,86.20
2017-08-06T04:07:17.206Z,86.60
2017-08-06T04:09:43.486Z,86.70
2017-08-06T04:12:09.771Z,86.70
2017-08-06T04:14:36.107Z,86.90
2017-08-06T04:17:02.438Z,86.80
2017-08-06T04:19:28.717Z,86.50
2017-08-06T04:21:55.006Z,86.50
2017-08-06T04:24:21.308Z,86.40
2017-08-06T04:26:47.573Z,86.30
2017-08-06T04:29:14.585Z,86.40
2017-08-06T04:31:40.993Z,86.30
2017-08-06T04:34:07.266Z,86.30
2017-08-06T04:36:33.538Z,86.20
2017-08-06T04:39:00.103Z,86.40
2017-08-06T04:41:26.375Z,86.20
2017-08-06T04:43:53.383Z,85.50
2017-08-06T04:46:19.770Z,85.50
2017-08-06T04:48:46.050Z,85.50
2017-08-06T04:51:12.319Z,85.50
2017-08-06T04:53:39.455Z,85.30
2017-08-06T04:56:06.480Z,85.60
2017-08-06T04:58:32.758Z,85.20
2017-08-06T05:00:59.190Z,85.30
2017-08-06T05:03:25.469Z,86.70
2017-08-06T05:05:51.737Z,88.60
2017-08-06T05:08:18.874Z,88.20
2017-08-06T05:10:45.901Z,89.10
2017-08-06T05:13:12.181Z,88.90
2017-08-06T05:15:38.844Z,89.70
2017-08-06T05:18:05.114Z,89.40
2017-08-06T05:20:32.131Z,89.60
2017-08-06T05:22:58.431Z,88.80
2017-08-06T05:25:24.714Z,89.10
2017-08-06T05:27:51.743Z,89.50
2017-08-06T05:30:18.814Z,89.20
2017-08-06T05:32:45.849Z,88.90
2017-08-06T05:35:12.176Z,88.70
2017-08-06T05:37:38.627Z,88.10
2017-08-06T05:40:05.702Z,88.60
2017-08-06T05:42:31.999Z,88.60
2017-08-06T05:44:59.035Z,87.80
2017-08-06T05:47:25.313Z,87.70
2017-08-06T05:49:51.605Z,88.10
2017-08-06T05:52:18.629Z,88.40
2017-08-06T05:54:44.967Z,88.30
2017-08-06T05:57:11.251Z,86.60
2017-08-06T05:59:37.519Z,87.40
2017-08-06T06:02:04.057Z,87.00
2017-08-06T06:04:31.493Z,85.40
2017-08-06T06:06:57.763Z,85.30
2017-08-06T06:09:24.771Z,87.10
2017-08-06T06:11:51.087Z,86.80
2017-08-06T06:14:17.367Z,86.20
2017-08-06T06:16:44.411Z,84.10
2017-08-06T06:19:11.567Z,83.00
2017-08-06T06:21:38.607Z,83.90
2017-08-06T06:24:05.619Z,83.70
2017-08-06T06:26:31.947Z,83.10
2017-08-06T06:28:58.238Z,82.20
2017-08-06T06:31:24.507Z,82.50
2017-08-06T06:33:50.823Z,84.00
2017-08-06T06:36:17.095Z,85.00
2017-08-06T06:38:43.369Z,83.00
2017-08-06T06:41:09.930Z,83.00
2017-08-06T06:43:36.196Z,82.00
2017-08-06T06:46:03.215Z,80.40
2017-08-06T06:48:29.490Z,80.50
2017-08-06T06:50:55.783Z,81.00
2017-08-06T06:53:22.051Z,80.10
2017-08-06T06:55:48.526Z,78.60
2017-08-06T06:58:14.813Z,80.50
2017-08-06T07:00:41.084Z,79.60
2017-08-06T07:03:07.376Z,79.70
2017-08-06T07:05:36.384Z,78.80
2017-08-06T07:08:02.936Z,78.40
2017-08-06T07:10:29.571Z,78.30
2017-08-06T07:12:56.032Z,78.10
2017-08-06T07:15:22.572Z,78.00
2017-08-06T07:17:49.970Z,78.50
2017-08-06T07:20:16.275Z,77.80
2017-08-06T07:22:42.578Z,76.60
2017-08-06T07:25:08.879Z,77.50
2017-08-06T07:27:35.150Z,75.70
2017-08-06T07:30:01.427Z,76.30
2017-08-06T07:32:27.984Z,76.60
2017-08-06T07:34:54.259Z,76.40
2017-08-06T07:37:20.524Z,76.20
2017-08-06T07:39:46.843Z,76.00
2017-08-06T07:42:13.129Z,73.80
2017-08-06T07:44:39.447Z,73.70
2017-08-06T07:47:06.658Z,73.30
2017-08-06T07:49:34.041Z,71.90
2017-08-06T07:52:01.247Z,71.90
2017-08-06T07:54:28.319Z,72.50
2017-08-06T07:56:54.619Z,72.40
2017-08-06T07:59:20.930Z,73.10
2017-08-06T08:01:47.383Z,73.20
2017-08-06T08:04:14.407Z,70.90
2017-08-06T08:06:40.686Z,70.90
2017-08-06T08:09:07.608Z,71.20
2017-08-06T08:11:33.911Z,71.50
2017-08-06T08:14:00.193Z,71.20
2017-08-06T08:16:26.509Z,70.60
2017-08-06T08:18:52.787Z,70.70
2017-08-06T08:21:19.980Z,71.60
2017-08-06T08:23:47.235Z,70.00
2017-08-06T08:26:13.569Z,70.00
2017-08-06T08:28:39.883Z,68.40
2017-08-06T08:31:07.295Z,68.10
2017-08-06T08:33:33.574Z,68.00
2017-08-06T08:35:59.880Z,67.10
2017-08-06T08:38:26.186Z,67.40
2017-08-06T08:40:52.463Z,66.60
2017-08-06T08:43:19.492Z,67.30
2017-08-06T08:45:46.733Z,66.40
2017-08-06T08:48:13.036Z,66.30
2017-08-06T08:50:39.327Z,66.80
2017-08-06T08:53:06.003Z,67.30
2017-08-06T08:55:32.319Z,67.30
2017-08-06T08:57:58.614Z,64.60
2017-08-06T09:00:25.766Z,65.10
2017-08-06T09:02:52.784Z,63.90
2017-08-06T09:05:19.072Z,63.90
2017-08-06T09:07:45.397Z,65.70
2017-08-06T09:10:11.684Z,65.60
2017-08-06T09:12:38.712Z,67.00
2017-08-06T09:15:05.065Z,66.50
2017-08-06T09:17:32.140Z,74.50
2017-08-06T09:19:58.444Z,74.50
2017-08-06T09:22:24.915Z,78.50
2017-08-06T09:24:51.232Z,81.00
2017-08-06T09:27:17.512Z,81.60
2017-08-06T09:29:44.855Z,83.80
2017-08-06T09:32:11.143Z,81.70
2017-08-06T09:34:37.428Z,83.30
2017-08-06T09:37:03.912Z,82.50
2017-08-06T09:39:30.328Z,82.00
2017-08-06T09:41:57.348Z,80.30
2017-08-06T09:44:24.156Z,80.30
2017-08-06T09:46:50.476Z,81.50
2017-08-06T09:49:16.791Z,79.40
2017-08-06T09:51:43.374Z,77.70
2017-08-06T09:54:09.712Z,78.50
2017-08-06T09:56:36.091Z,80.20
2017-08-06T09:59:02.816Z,79.80
2017-08-06T10:01:29.265Z,75.90
2017-08-06T10:03:55.571Z,75.50
2017-08-06T10:06:22.611Z,72.40
2017-08-06T10:08:49.659Z,71.20
2017-08-06T10:11:18.607Z,70.50
2017-08-06T10:13:46.263Z,67.30
2017-08-06T10:16:12.754Z,66.60
2017-08-06T10:18:39.781Z,63.80
2017-08-06T10:21:07.316Z,64.60
2017-08-06T10:23:33.595Z,63.90
2017-08-06T10:26:00.639Z,67.90
2017-08-06T10:28:27.788Z,69.30
2017-08-06T10:30:54.808Z,80.40
2017-08-06T10:33:30.284Z,80.30
2017-08-06T10:35:59.083Z,86.70
2017-08-06T10:38:27.356Z,86.70
2017-08-06T10:40:53.701Z,89.00
2017-08-06T10:43:20.168Z,85.90
2017-08-06T10:45:46.660Z,86.10
2017-08-06T10:48:12.975Z,85.90
2017-08-06T10:50:41.119Z,86.90
2017-08-06T10:53:07.431Z,86.90
2017-08-06T10:55:33.705Z,86.60
2017-08-06T10:58:00.031Z,83.40
2017-08-06T11:00:30.625Z,80.20
2017-08-06T11:02:56.935Z,80.20
2017-08-06T11:05:23.206Z,80.40
2017-08-06T11:07:49.502Z,80.80
2017-08-06T11:10:16.562Z,75.30
2017-08-06T11:12:42.827Z,79.80
2017-08-06T11:15:09.916Z,76.70
2017-08-06T11:17:36.201Z,76.60
2017-08-06T11:20:03.988Z,73.80
2017-08-06T11:22:30.431Z,73.80
2017-08-06T11:24:56.707Z,72.40
2017-08-06T11:27:23.010Z,73.80
2017-08-06T11:29:51.011Z,67.90
2017-08-06T11:32:17.550Z,69.40
2017-08-06T11:34:44.683Z,65.80
2017-08-06T11:37:14.136Z,65.80
2017-08-06T11:39:40.522Z,66.20
2017-08-06T11:42:06.877Z,64.50
2017-08-06T11:44:34.009Z,64.10
2017-08-06T11:47:00.296Z,64.00
2017-08-06T11:49:26.773Z,64.30
2017-08-06T11:51:53.116Z,62.40
2017-08-06T11:54:19.433Z,60.00
2017-08-06T11:56:45.779Z,58.70
2017-08-06T11:59:15.104Z,59.20
2017-08-06T12:01:41.446Z,60.90
2017-08-06T12:04:07.791Z,59.40
2017-08-06T12:06:34.451Z,59.20
2017-08-06T12:09:00.774Z,58.40
2017-08-06T12:11:27.174Z,59.10
2017-08-06T12:13:53.500Z,58.80
2017-08-06T12:16:19.814Z,56.10
2017-08-06T12:18:46.396Z,56.70
2017-08-06T12:21:12.768Z,55.80
2017-08-06T12:23:39.787Z,57.50
2017-08-06T12:26:06.205Z,57.10
2017-08-06T12:28:32.493Z,56.80
2017-08-06T12:30:58.878Z,56.80
2017-08-06T12:33:32.430Z,55.40
2017-08-06T12:35:58.707Z,55.50
2017-08-06T12:38:25.000Z,54.30
2017-08-06T12:40:51.312Z,54.90
2017-08-06T12:43:17.608Z,55.90
2017-08-06T12:45:43.899Z,57.50
2017-08-06T12:48:10.219Z,57.70
2017-08-06T12:50:36.501Z,56.30
2017-08-06T12:53:02.802Z,56.60
2017-08-06T12:55:29.212Z,54.60
2017-08-06T12:57:55.590Z,52.70
2017-08-06T13:00:21.914Z,52.00
2017-08-06T13:02:48.236Z,52.10
2017-08-06T13:05:14.545Z,50.70
2017-08-06T13:07:40.822Z,51.20
2017-08-06T13:10:07.293Z,51.10
2017-08-06T13:12:33.567Z,49.60
2017-08-06T13:15:00.716Z,49.10
2017-08-06T13:17:27.020Z,47.60
2017-08-06T13:19:53.308Z,49.10
2017-08-06T13:22:20.322Z,54.60
2017-08-06T13:24:46.641Z,54.50
2017-08-06T13:27:12.985Z,53.40
2017-08-06T13:29:39.259Z,55.70
2017-08-06T13:32:05.588Z,60.60
2017-08-06T13:34:31.903Z,61.20
2017-08-06T13:36:58.916Z,59.20
2017-08-06T13:39:25.216Z,59.20
2017-08-06T13:41:51.494Z,58.20
2017-08-06T13:44:18.636Z,56.70
2017-08-06T13:46:44.923Z,56.60
2017-08-06T13:49:11.500Z,56.60
2017-08-06T13:51:37.810Z,56.60
2017-08-06T13:54:04.108Z,56.40
2017-08-06T13:56:30.387Z,54.70
2017-08-06T13:58:57.641Z,55.90
2017-08-06T14:01:23.920Z,54.60
2017-08-06T14:03:50.210Z,53.30
2017-08-06T14:06:17.270Z,51.20
2017-08-06T14:08:43.562Z,51.10
2017-08-06T14:11:09.839Z,51.50
2017-08-06T14:13:36.166Z,51.90
2017-08-06T14:16:02.457Z,52.60
2017-08-06T14:18:28.747Z,53.60
2017-08-06T14:20:55.229Z,52.60
2017-08-06T14:23:21.512Z,50.70
2017-08-06T14:25:47.805Z,52.80
2017-08-06T14:28:15.002Z,57.50
2017-08-06T14:30:41.306Z,57.50
2017-08-06T14:33:07.595Z,56.00
2017-08-06T14:35:33.915Z,54.30
2017-08-06T14:38:00.210Z,53.60
2017-08-06T14:40:26.501Z,53.00
2017-08-06T14:42:53.628Z,54.30
2017-08-06T14:45:19.923Z,53.90
2017-08-06T14:47:46.207Z,54.60
2017-08-06T14:50:13.441Z,58.50
2017-08-06T14:52:39.711Z,58.00
2017-08-06T14:55:05.991Z,58.90
2017-08-06T14:57:32.332Z,61.20
2017-08-06T14:59:58.612Z,61.90
2017-08-06T15:02:24.910Z,59.80
2017-08-06T15:04:51.980Z,60.70
2017-08-06T15:07:18.250Z,60.60
2017-08-06T15:09:44.518Z,59.10
2017-08-06T15:12:11.567Z,57.60
2017-08-06T15:14:38.583Z,57.30
2017-08-06T15:17:04.880Z,57.30
2017-08-06T15:19:31.190Z,59.40
2017-08-06T15:21:57.454Z,59.20
2017-08-06T15:24:23.748Z,59.60
2017-08-06T15:26:50.047Z,58.80
2017-08-06T15:29:16.310Z,59.00
2017-08-06T15:31:43.151Z,60.60
2017-08-06T15:34:09.454Z,59.20
2017-08-06T15:36:36.471Z,58.20
2017-08-06T15:39:02.789Z,57.70
2017-08-06T15:41:29.167Z,60.10
2017-08-06T15:43:55.460Z,58.90
2017-08-06T15:46:21.744Z,58.60
2017-08-06T15:48:48.132Z,59.70
2017-08-06T15:51:14.431Z,59.90
2017-08-06T15:53:40.720Z,59.60
2017-08-06T15:56:07.921Z,58.60
2017-08-06T15:58:34.200Z,58.50
2017-08-06T16:01:01.240Z,57.50
2017-08-06T16:03:27.551Z,57.40
2017-08-06T16:05:53.835Z,58.30
2017-08-06T16:08:20.131Z,59.00
2017-08-06T16:10:49.640Z,58.50
2017-08-06T16:13:15.924Z,58.40
2017-08-06T16:15:42.199Z,57.80
2017-08-06T16:18:09.260Z,57.50
2017-08-06T16:20:35.550Z,57.50
2017-08-06T16:23:01.860Z,59.30
2017-08-06T16:25:28.417Z,56.80
2017-08-06T16:27:54.831Z,58.10
2017-08-06T16:30:21.186Z,57.30
2017-08-06T16:32:47.474Z,58.70
2017-08-06T16:35:13.788Z,57.60
2017-08-06T16:37:40.069Z,58.60
2017-08-06T16:40:06.363Z,58.90
2017-08-06T16:42:32.668Z,59.40
2017-08-06T16:44:58.947Z,59.90
2017-08-06T16:47:25.303Z,59.20
2017-08-06T16:49:52.332Z,59.20
2017-08-06T16:52:18.614Z,59.20
2017-08-06T16:54:44.904Z,59.50
2017-08-06T16:57:11.183Z,59.10
2017-08-06T16:59:37.836Z,60.30
2017-08-06T17:02:04.110Z,59.50
2017-08-06T17:04:31.129Z,59.50
2017-08-06T17:06:57.443Z,59.50
2017-08-06T17:09:23.721Z,59.80
2017-08-06T17:11:50.745Z,60.20
2017-08-06T17:14:17.036Z,60.20
2017-08-06T17:16:43.313Z,61.20
2017-08-06T17:19:10.340Z,59.50
2017-08-06T17:21:37.129Z,59.50
2017-08-06T17:24:03.749Z,60.00
2017-08-06T17:26:30.043Z,59.90
2017-08-06T17:28:56.866Z,61.00
2017-08-06T17:31:23.396Z,61.70
2017-08-06T17:33:50.131Z,60.10
2017-08-06T17:36:16.618Z,61.50
2017-08-06T17:38:43.978Z,61.20
2017-08-06T17:41:10.538Z,61.10
2017-08-06T17:43:37.134Z,62.60
2017-08-06T17:46:03.419Z,62.80
2017-08-06T17:48:29.714Z,62.30
2017-08-06T17:50:56.858Z,62.00
2017-08-06T17:53:23.867Z,62.20
2017-08-06T17:55:50.143Z,62.20
2017-08-06T17:58:17.187Z,62.10
2017-08-06T18:00:44.212Z,62.40
2017-08-06T18:03:10.493Z,62.40
2017-08-06T18:05:37.051Z,63.20
2017-08-06T18:08:03.341Z,62.90
2017-08-06T18:10:29.629Z,63.90
2017-08-06T18:12:56.249Z,63.50
2017-08-06T18:15:22.525Z,64.30
2017-08-06T18:17:48.815Z,63.80
2017-08-06T18:20:15.111Z,64.30
2017-08-06T18:22:41.375Z,64.60
2017-08-06T18:25:07.681Z,64.00
2017-08-06T18:27:33.987Z,64.30
2017-08-06T18:30:00.277Z,64.60
2017-08-06T18:32:26.583Z,64.70
2017-08-06T18:34:52.881Z,65.00
2017-08-06T18:37:26.191Z,65.50
2017-08-06T18:39:52.507Z,65.70
2017-08-06T18:42:18.790Z,65.90
2017-08-06T18:44:45.070Z,67.20
2017-08-06T18:47:11.643Z,66.40
2017-08-06T18:49:37.939Z,66.90
2017-08-06T18:54:37.291Z,67.90
2017-08-06T18:57:03.594Z,66.80
2017-08-06T18:59:29.885Z,67.40
2017-08-06T19:01:56.939Z,68.40
2017-08-06T19:04:23.959Z,68.70
2017-08-06T19:06:50.263Z,68.70
2017-08-06T19:09:16.578Z,69.30
2017-08-06T19:11:42.868Z,69.90
2017-08-06T19:14:09.901Z,70.30
2017-08-06T19:16:36.223Z,70.10
2017-08-06T19:19:02.522Z,70.30
2017-08-06T19:21:28.822Z,70.70
2017-08-06T19:23:55.305Z,71.70
2017-08-06T19:26:21.582Z,72.50
2017-08-06T19:28:47.878Z,72.20
2017-08-06T19:31:14.187Z,72.20
2017-08-06T19:33:40.461Z,72.00
2017-08-06T19:36:06.737Z,72.80
2017-08-06T19:38:33.043Z,73.50
2017-08-06T19:41:07.184Z,73.00
2017-08-06T19:43:33.648Z,73.60
2017-08-06T19:45:59.943Z,73.50
2017-08-06T19:48:26.230Z,73.00
2017-08-06T19:50:52.523Z,73.70
2017-08-06T19:53:18.839Z,74.20
2017-08-06T19:55:45.904Z,74.10
2017-08-06T19:58:12.196Z,74.60
2017-08-06T20:00:38.497Z,74.90
2017-08-06T20:03:04.796Z,75.40
2017-08-06T20:05:31.073Z,76.00
2017-08-06T20:07:57.374Z,76.20
2017-08-06T20:10:24.392Z,75.60
2017-08-06T20:12:50.672Z,75.70
2017-08-06T20:15:17.240Z,76.20
2017-08-06T20:17:43.540Z,75.80
2017-08-06T20:20:09.820Z,75.10
2017-08-06T20:22:36.439Z,77.60
2017-08-06T20:25:02.738Z,75.50
2017-08-06T20:27:29.011Z,75.60
2017-08-06T20:29:55.312Z,76.30
2017-08-06T20:32:21.595Z,75.70
2017-08-06T20:34:47.878Z,76.00
2017-08-06T20:37:14.188Z,75.90
2017-08-06T20:39:40.465Z,77.10
2017-08-06T20:42:06.763Z,76.00
2017-08-06T20:44:33.173Z,77.30
2017-08-06T20:46:59.451Z,76.80
2017-08-06T20:49:25.755Z,78.00
2017-08-06T20:51:52.069Z,76.90
2017-08-06T20:54:18.348Z,78.00
2017-08-06T20:56:44.818Z,77.30
2017-08-06T20:59:11.131Z,78.50
2017-08-06T21:01:38.151Z,79.90
2017-08-06T21:04:04.439Z,79.90
2017-08-06T21:06:30.741Z,80.00
2017-08-06T21:08:58.991Z,80.90
2017-08-06T21:11:25.283Z,80.80
2017-08-06T21:13:51.750Z,81.00
2017-08-06T21:16:18.032Z,80.70
2017-08-06T21:18:44.316Z,80.90
2017-08-06T21:21:10.617Z,79.70
2017-08-06T21:23:36.930Z,78.80
2017-08-06T21:26:03.211Z,79.90
2017-08-06T21:28:30.249Z,81.30
2017-08-06T21:30:56.630Z,80.60
2017-08-06T21:33:22.948Z,81.60
2017-08-06T21:35:49.277Z,82.10
2017-08-06T21:38:15.564Z,82.10
2017-08-06T21:40:41.868Z,82.30
2017-08-06T21:43:08.153Z,82.50
2017-08-06T21:45:35.167Z,82.60
2017-08-06T21:48:01.471Z,82.50
2017-08-06T21:50:27.742Z,83.10
2017-08-06T21:52:54.022Z,83.50
2017-08-06T21:55:20.484Z,83.30
2017-08-06T21:57:46.763Z,83.30
2017-08-06T22:00:13.045Z,83.30
2017-08-06T22:02:39.349Z,83.40
2017-08-06T22:05:05.640Z,83.30
2017-08-06T22:07:32.662Z,84.10
2017-08-06T22:09:58.977Z,84.10
2017-08-06T22:12:25.253Z,84.30
2017-08-06T22:14:51.523Z,84.20
2017-08-06T22:17:17.827Z,83.90
2017-08-06T22:19:44.122Z,84.30
2017-08-06T22:22:11.145Z,84.10
2017-08-06T22:24:37.543Z,83.50
2017-08-06T22:27:03.828Z,83.90
2017-08-06T22:29:30.861Z,85.40
2017-08-06T22:31:57.321Z,84.70
2017-08-06T22:34:24.342Z,84.50
2017-08-06T22:36:50.621Z,84.50
2017-08-06T22:39:17.100Z,84.40
2017-08-06T22:41:44.147Z,85.00
2017-08-06T22:44:10.431Z,84.80
2017-08-06T22:46:36.919Z,84.80
2017-08-06T22:49:03.199Z,85.00
2017-08-06T22:51:29.494Z,84.10
2017-08-06T22:53:55.842Z,84.30
2017-08-06T22:56:22.119Z,84.40
2017-08-06T22:58:48.466Z,84.80
2017-08-06T23:01:14.794Z,84.90
2017-08-06T23:03:41.080Z,84.90
2017-08-06T23:06:07.410Z,85.80
2017-08-06T23:08:33.723Z,86.50
2017-08-06T23:11:00.015Z,85.50
2017-08-06T23:13:27.061Z,85.80
2017-08-06T23:15:53.414Z,84.90
2017-08-06T23:18:20.453Z,85.30
2017-08-06T23:20:47.495Z,85.60
2017-08-06T23:23:13.830Z,85.60
2017-08-06T23:25:40.123Z,85.40
2017-08-06T23:28:06.683Z,85.10
2017-08-06T23:30:33.021Z,85.00
2017-08-06T23:32:59.335Z,85.30
2017-08-06T23:35:25.615Z,85.30
2017-08-06T23:37:51.919Z,85.80
2017-08-06T23:40:18.960Z,86.00
2017-08-06T23:42:45.973Z,86.50
2017-08-06T23:45:12.435Z,85.60
2017-08-06T23:47:38.722Z,85.80
2017-08-06T23:50:05.012Z,86.10
2017-08-06T23:52:32.168Z,85.70
2017-08-06T23:54:58.477Z,85.70
2017-08-06T23:57:24.770Z,85.40
2017-08-06T23:59:51.203Z,85.20
